Time;durP1;ratioP1;P1;durP2;ratioP2;P2;SDS_P1;SDS_P2;PMS_P1;PMS_P2;Temp;Humidity;BMP_temperature;BMP_pressure;BME280_temperature;BME280_humidity;BME280_pressure;Samples;Min_cycle;Max_cycle;Signal;HPM_P1;HPM_P2
2021/06/19 00:01:56;;;;;;;2.00;1.47;;;27.10;57.50;;;;;;5081002;28;20467;-26
2021/06/19 00:04:27;;;;;;;2.40;1.70;;;26.90;58.20;;;;;;5080714;28;20447;-27
2021/06/19 00:06:58;;;;;;;2.67;1.73;;;26.80;58.60;;;;;;5083726;28;20447;-28
2021/06/19 00:09:29;;;;;;;1.60;1.43;;;26.70;59.60;;;;;;5081892;28;20448;-23
2021/06/19 00:12:00;;;;;;;3.03;2.50;;;26.70;60.10;;;;;;5083785;28;20482;-25
2021/06/19 00:14:33;;;;;;;1.77;1.67;;;26.70;58.70;;;;;;5072336;28;20457;-24
2021/06/19 00:17:04;;;;;;;1.83;1.60;;;26.70;57.90;;;;;;5083621;28;20436;-25
2021/06/19 00:19:35;;;;;;;1.83;1.73;;;26.50;58.40;;;;;;5082979;28;20542;-25
2021/06/19 00:22:06;;;;;;;1.77;1.67;;;26.40;59.00;;;;;;5083461;28;20456;-26
2021/06/19 00:24:40;;;;;;;2.13;1.53;;;26.40;60.70;;;;;;5081961;28;20465;-25
2021/06/19 00:27:11;;;;;;;3.63;1.63;;;26.30;59.70;;;;;;5073290;28;20467;-23
2021/06/19 00:29:44;;;;;;;1.83;1.73;;;26.40;60.00;;;;;;5072518;28;20488;-24
2021/06/19 00:32:15;;;;;;;2.27;1.70;;;26.40;60.70;;;;;;5072689;28;20501;-23
2021/06/19 00:34:46;;;;;;;2.50;1.90;;;26.50;60.10;;;;;;5078578;28;20456;-27
2021/06/19 00:37:17;;;;;;;2.23;1.83;;;26.40;59.90;;;;;;5068468;28;20481;-26
2021/06/19 00:39:48;;;;;;;1.60;1.30;;;26.40;59.70;;;;;;5080368;28;20455;-26
2021/06/19 00:42:20;;;;;;;2.40;2.00;;;26.20;60.10;;;;;;5082613;28;20804;-26
2021/06/19 00:44:53;;;;;;;1.60;1.50;;;26.20;61.20;;;;;;5073407;28;20452;-24
2021/06/19 00:47:43;;;;;;;2.47;1.80;;;26.20;60.00;;;;;;5082002;28;20505;-22
2021/06/19 00:50:15;;;;;;;2.20;1.50;;;26.20;59.70;;;;;;5081406;28;20462;-24
2021/06/19 00:52:46;;;;;;;3.23;1.87;;;26.20;58.10;;;;;;5078122;28;20497;-24
2021/06/19 00:55:18;;;;;;;2.20;1.70;;;26.10;59.80;;;;;;5081164;28;20601;-25
2021/06/19 00:57:50;;;;;;;3.07;2.30;;;26.10;60.10;;;;;;5082323;28;20460;-25
2021/06/19 01:00:24;;;;;;;3.13;1.90;;;26.00;59.30;;;;;;5078701;28;20456;-24
2021/06/19 01:02:59;;;;;;;1.73;1.60;;;25.90;59.30;;;;;;5083048;28;20888;-24
2021/06/19 01:05:31;;;;;;;1.60;1.50;;;25.80;60.00;;;;;;5078736;28;20526;-24
2021/06/19 01:08:02;;;;;;;2.07;1.93;;;25.80;61.70;;;;;;5082929;28;20470;-25
2021/06/19 01:10:33;;;;;;;2.57;2.37;;;25.90;60.60;;;;;;5077094;28;20448;-26
2021/06/19 01:13:06;;;;;;;1.83;1.60;;;25.70;60.70;;;;;;5082287;28;20502;-25
2021/06/19 01:15:39;;;;;;;3.63;2.07;;;25.60;61.90;;;;;;5065793;28;20454;-29
2021/06/19 01:18:09;;;;;;;2.17;1.97;;;25.50;62.70;;;;;;5082053;28;20456;-26
2021/06/19 01:20:40;;;;;;;2.00;1.90;;;25.50;62.40;;;;;;5078427;28;20467;-24
2021/06/19 01:23:11;;;;;;;1.70;1.60;;;25.50;62.10;;;;;;5066310;28;20508;-25
2021/06/19 01:25:44;;;;;;;2.00;1.80;;;25.50;62.60;;;;;;5081081;28;20510;-24
2021/06/19 01:28:15;;;;;;;2.10;1.90;;;25.40;63.80;;;;;;5081657;28;20487;-29
2021/06/19 01:30:47;;;;;;;1.93;1.53;;;25.40;63.00;;;;;;5081402;28;20976;-24
2021/06/19 01:33:20;;;;;;;3.93;1.90;;;25.30;62.90;;;;;;5080880;28;20494;-30
2021/06/19 01:35:51;;;;;;;2.27;2.03;;;25.30;62.00;;;;;;5077570;28;20471;-27
2021/06/19 01:38:22;;;;;;;4.07;2.00;;;25.30;62.60;;;;;;5082497;28;20447;-23
2021/06/19 01:40:55;;;;;;;5.30;2.00;;;25.10;64.20;;;;;;5079925;28;20444;-25
2021/06/19 01:43:26;;;;;;;2.07;1.87;;;25.10;64.90;;;;;;5082413;28;20462;-22
2021/06/19 01:45:57;;;;;;;2.73;1.90;;;25.00;65.80;;;;;;5077949;28;20448;-26
2021/06/19 01:48:29;;;;;;;2.87;2.00;;;25.00;66.70;;;;;;5074367;28;20467;-23
2021/06/19 01:51:00;;;;;;;2.07;1.50;;;25.00;66.70;;;;;;5071878;28;20452;-26
2021/06/19 01:53:31;;;;;;;2.77;1.80;;;24.80;66.40;;;;;;5065410;28;20536;-22
2021/06/19 01:56:03;;;;;;;2.60;1.90;;;24.80;67.40;;;;;;5081209;28;20483;-24
2021/06/19 01:58:34;;;;;;;2.90;2.10;;;24.70;67.40;;;;;;5083310;28;20452;-23
2021/06/19 02:01:07;;;;;;;2.40;1.93;;;24.60;67.50;;;;;;5078466;28;20444;-28
2021/06/19 02:03:39;;;;;;;1.63;1.53;;;24.60;66.80;;;;;;5070523;28;20440;-23
2021/06/19 02:06:10;;;;;;;2.07;1.57;;;24.50;66.60;;;;;;5085425;28;20471;-24
2021/06/19 02:08:41;;;;;;;2.60;1.67;;;24.40;67.50;;;;;;5086198;28;20425;-22
2021/06/19 02:11:14;;;;;;;2.20;1.57;;;24.20;68.30;;;;;;5084120;28;20497;-24
2021/06/19 02:13:45;;;;;;;3.77;2.53;;;24.10;68.20;;;;;;5084368;28;20494;-25
2021/06/19 02:16:16;;;;;;;2.50;1.90;;;24.10;69.20;;;;;;5077628;28;20502;-24
2021/06/19 02:18:47;;;;;;;3.60;2.30;;;24.00;69.40;;;;;;5084193;28;20463;-25
2021/06/19 02:21:21;;;;;;;3.00;2.10;;;23.90;70.30;;;;;;5085716;28;20509;-22
2021/06/19 02:23:54;;;;;;;2.37;2.07;;;23.80;70.20;;;;;;5085320;28;20483;-24
2021/06/19 02:26:27;;;;;;;2.90;1.90;;;23.80;70.60;;;;;;5084933;28;20447;-26
2021/06/19 02:28:58;;;;;;;2.60;1.90;;;23.80;70.20;;;;;;5082958;28;20447;-22
2021/06/19 02:31:29;;;;;;;3.27;1.70;;;23.70;70.00;;;;;;5084829;28;21020;-25
2021/06/19 02:34:00;;;;;;;2.47;2.07;;;23.50;70.30;;;;;;5085099;28;20543;-22
2021/06/19 02:36:31;;;;;;;2.30;1.57;;;23.40;70.30;;;;;;5085436;28;20451;-24
2021/06/19 02:39:02;;;;;;;2.00;1.80;;;23.30;70.40;;;;;;5084913;28;20458;-23
2021/06/19 02:41:35;;;;;;;2.80;1.97;;;23.20;70.30;;;;;;5085553;28;20451;-26
2021/06/19 02:44:06;;;;;;;2.10;1.90;;;23.10;70.80;;;;;;5085055;28;20437;-24
2021/06/19 02:46:38;;;;;;;2.70;1.77;;;23.00;71.70;;;;;;5082957;28;20765;-25
2021/06/19 02:49:09;;;;;;;2.53;2.10;;;22.90;72.90;;;;;;5084600;28;20482;-23
2021/06/19 02:51:40;;;;;;;3.93;1.70;;;22.90;72.60;;;;;;5085133;28;20442;-23
2021/06/19 02:54:11;;;;;;;3.33;1.97;;;22.90;72.80;;;;;;5083674;28;20495;-22
2021/06/19 02:56:44;;;;;;;3.80;2.20;;;22.90;72.20;;;;;;5082578;28;20519;-22
2021/06/19 02:59:15;;;;;;;3.73;2.10;;;22.70;72.40;;;;;;5082734;28;20426;-23
2021/06/19 03:01:46;;;;;;;2.20;1.83;;;22.60;73.10;;;;;;5084256;28;20464;-25
2021/06/19 03:04:17;;;;;;;2.70;1.60;;;22.60;74.10;;;;;;5082725;28;20446;-24
2021/06/19 03:06:48;;;;;;;2.57;1.90;;;22.40;73.70;;;;;;5084960;28;20448;-24
2021/06/19 03:09:19;;;;;;;1.57;1.47;;;22.40;73.20;;;;;;5081021;28;20495;-23
2021/06/19 03:11:55;;;;;;;2.00;1.80;;;22.30;73.10;;;;;;5082429;28;20767;-25
2021/06/19 03:14:26;;;;;;;3.20;1.80;;;22.20;73.30;;;;;;5077214;28;20492;-23
2021/06/19 03:16:57;;;;;;;3.47;1.93;;;22.10;74.50;;;;;;5069210;28;20447;-24
2021/06/19 03:19:28;;;;;;;2.70;1.70;;;22.00;75.40;;;;;;5083169;28;20511;-25
2021/06/19 03:22:00;;;;;;;3.77;2.33;;;21.90;75.60;;;;;;5076962;28;20448;-23
2021/06/19 03:24:31;;;;;;;2.07;1.60;;;21.80;75.10;;;;;;5082887;28;20426;-26
2021/06/19 03:27:04;;;;;;;3.10;1.80;;;21.70;76.10;;;;;;5077394;28;20447;-23
2021/06/19 03:29:35;;;;;;;3.47;1.70;;;21.70;76.00;;;;;;5083217;28;20451;-22
2021/06/19 03:32:07;;;;;;;4.20;1.90;;;21.50;75.90;;;;;;5084322;28;20501;-23
2021/06/19 03:34:41;;;;;;;3.90;1.93;;;21.50;76.30;;;;;;5078763;28;20541;-22
2021/06/19 03:37:12;;;;;;;1.87;1.60;;;21.30;77.40;;;;;;5080761;28;20470;-24
2021/06/19 03:39:43;;;;;;;2.53;1.47;;;21.30;77.30;;;;;;5082620;28;20851;-24
2021/06/19 03:42:16;;;;;;;2.93;1.40;;;21.20;76.20;;;;;;5084262;28;20501;-26
2021/06/19 03:44:47;;;;;;;2.53;1.40;;;21.10;77.50;;;;;;5080610;28;20488;-24
2021/06/19 03:47:37;;;;;;;2.40;1.70;;;21.00;77.50;;;;;;5067961;28;20553;-23
2021/06/19 03:50:09;;;;;;;3.27;2.00;;;20.90;77.10;;;;;;5082206;28;20462;-22
2021/06/19 03:52:41;;;;;;;5.87;3.13;;;20.80;77.60;;;;;;5083581;28;20476;-26
2021/06/19 03:55:13;;;;;;;2.87;2.00;;;20.70;78.40;;;;;;5082974;28;20425;-25
2021/06/19 03:57:45;;;;;;;2.20;1.40;;;20.60;79.10;;;;;;5084453;28;20456;-23
2021/06/19 04:00:18;;;;;;;5.40;1.63;;;20.50;79.40;;;;;;5083704;28;20447;-24
2021/06/19 04:02:50;;;;;;;4.83;2.03;;;20.30;80.40;;;;;;5083967;28;20525;-25
2021/06/19 04:05:21;;;;;;;1.90;1.50;;;20.40;78.70;;;;;;5074472;28;20459;-24
2021/06/19 04:07:53;;;;;;;3.63;1.43;;;20.30;79.30;;;;;;5084232;28;20437;-25
2021/06/19 04:10:25;;;;;;;2.80;1.20;;;20.10;80.00;;;;;;5082492;28;20471;-24
2021/06/19 04:12:58;;;;;;;2.90;1.83;;;20.00;80.00;;;;;;5083264;28;20430;-22
2021/06/19 04:15:29;;;;;;;3.53;2.00;;;20.00;80.50;;;;;;5071539;28;20542;-23
2021/06/19 04:18:01;;;;;;;2.83;2.40;;;19.90;80.50;;;;;;5083595;28;20426;-24
2021/06/19 04:20:31;;;;;;;4.20;3.40;;;19.80;80.20;;;;;;5078968;28;20454;-25
2021/06/19 04:23:02;;;;;;;2.60;1.93;;;19.80;80.80;;;;;;5082915;28;20441;-24
2021/06/19 04:25:33;;;;;;;3.03;1.70;;;19.70;81.30;;;;;;5082363;28;20422;-24
2021/06/19 04:28:06;;;;;;;4.30;3.90;;;19.60;81.90;;;;;;5083629;28;20943;-23
2021/06/19 04:30:37;;;;;;;4.87;1.60;;;19.50;82.70;;;;;;5083040;28;20452;-23
2021/06/19 04:33:08;;;;;;;1.87;1.50;;;19.40;83.00;;;;;;5081667;28;20535;-23
2021/06/19 04:35:39;;;;;;;2.73;1.50;;;19.30;84.00;;;;;;5081360;28;20455;-24
2021/06/19 04:38:10;;;;;;;5.20;1.93;;;19.30;83.60;;;;;;5083460;28;20858;-29
2021/06/19 04:40:45;;;;;;;3.47;2.20;;;19.20;83.60;;;;;;5082096;28;20451;-24
2021/06/19 04:43:24;;;;;;;2.50;2.30;;;19.10;85.00;;;;;;5082878;28;20455;-22
2021/06/19 04:45:55;;;;;;;2.00;1.67;;;19.00;85.20;;;;;;5067461;28;20493;-22
2021/06/19 04:48:26;;;;;;;2.90;2.27;;;18.90;86.60;;;;;;5083179;28;20507;-22
2021/06/19 04:50:57;;;;;;;1.80;1.70;;;18.80;87.30;;;;;;5082989;28;20438;-23
2021/06/19 04:53:28;;;;;;;4.30;1.80;;;18.70;89.40;;;;;;5082682;28;20451;-24
2021/06/19 04:56:02;;;;;;;1.77;1.50;;;18.70;88.50;;;;;;5081150;28;20447;-23
2021/06/19 04:58:39;;;;;;;2.70;1.80;;;18.60;89.50;;;;;;5082760;28;20508;-22
2021/06/19 05:01:10;;;;;;;6.40;1.80;;;18.60;89.60;;;;;;5082193;28;20433;-22
2021/06/19 05:03:41;;;;;;;3.90;2.03;;;18.50;89.70;;;;;;5081942;28;20447;-25
2021/06/19 05:06:12;;;;;;;3.87;2.10;;;18.40;91.00;;;;;;5074190;28;20474;-22
2021/06/19 05:08:43;;;;;;;1.70;1.60;;;18.30;90.80;;;;;;5082270;28;20448;-22
2021/06/19 05:11:14;;;;;;;5.10;3.10;;;18.30;91.30;;;;;;5068757;28;20797;-21
2021/06/19 05:13:48;;;;;;;3.67;1.80;;;18.20;91.90;;;;;;5079303;28;20423;-22
2021/06/19 05:16:19;;;;;;;3.67;1.90;;;18.10;92.80;;;;;;5068764;28;20483;-24
2021/06/19 05:18:50;;;;;;;2.40;1.90;;;18.00;93.30;;;;;;5082574;28;20426;-23
2021/06/19 05:21:21;;;;;;;1.37;1.27;;;18.00;93.00;;;;;;5082126;28;20459;-22
2021/06/19 05:23:52;;;;;;;5.13;2.07;;;18.00;93.90;;;;;;5081465;28;20476;-25
2021/06/19 05:26:23;;;;;;;4.83;1.50;;;18.00;93.80;;;;;;5081759;28;20455;-23
2021/06/19 05:28:55;;;;;;;2.40;1.97;;;17.90;94.00;;;;;;5082296;28;20444;-22
2021/06/19 05:31:28;;;;;;;3.03;1.73;;;17.80;94.60;;;;;;5079548;28;20466;-22
2021/06/19 05:33:59;;;;;;;5.40;1.80;;;17.80;95.80;;;;;;5072804;28;20457;-22
2021/06/19 05:36:30;;;;;;;5.67;1.90;;;17.70;96.30;;;;;;5069473;28;20467;-21
2021/06/19 05:39:01;;;;;;;2.17;1.97;;;17.60;97.20;;;;;;5081512;28;20782;-24
2021/06/19 05:41:33;;;;;;;2.93;2.43;;;17.60;97.90;;;;;;5081751;28;20425;-25
2021/06/19 05:44:08;;;;;;;4.00;2.80;;;17.50;97.90;;;;;;5081691;28;20502;-22
2021/06/19 05:46:40;;;;;;;2.60;1.50;;;17.40;98.80;;;;;;5079201;28;20453;-22
2021/06/19 05:49:30;;;;;;;2.93;1.73;;;17.40;99.90;;;;;;5070115;28;20539;-22
2021/06/19 05:52:01;;;;;;;2.73;1.77;;;17.40;99.90;;;;;;5063570;28;20440;-24
2021/06/19 05:54:36;;;;;;;3.33;2.30;;;17.30;99.90;;;;;;5080134;28;20500;-22
2021/06/19 05:57:08;;;;;;;4.27;1.80;;;17.20;99.90;;;;;;5071263;28;20458;-22
2021/06/19 05:59:40;;;;;;;2.33;1.57;;;17.10;99.90;;;;;;5080755;28;20487;-24
2021/06/19 06:02:11;;;;;;;2.97;1.80;;;17.10;99.90;;;;;;5077580;28;20491;-22
2021/06/19 06:04:42;;;;;;;2.40;1.50;;;17.10;99.90;;;;;;5081851;28;20466;-25
2021/06/19 06:07:13;;;;;;;2.53;1.40;;;17.00;99.90;;;;;;5081990;28;20440;-22
2021/06/19 06:09:44;;;;;;;4.63;1.60;;;16.90;99.90;;;;;;5081015;28;20513;-22
2021/06/19 06:12:15;;;;;;;3.17;1.70;;;16.90;99.90;;;;;;5081944;28;20528;-23
2021/06/19 06:14:48;;;;;;;4.20;2.20;;;16.80;99.90;;;;;;5075226;28;20483;-23
2021/06/19 06:17:19;;;;;;;3.30;1.60;;;16.70;99.90;;;;;;5079194;28;20510;-25
2021/06/19 06:19:50;;;;;;;3.87;2.00;;;16.60;99.90;;;;;;5080998;28;20455;-24
2021/06/19 06:22:21;;;;;;;2.13;1.93;;;16.60;99.90;;;;;;5081110;28;20538;-24
2021/06/19 06:24:52;;;;;;;7.23;1.83;;;16.60;99.90;;;;;;5079854;28;20447;-22
2021/06/19 06:27:23;;;;;;;3.00;1.70;;;16.50;99.90;;;;;;5082280;28;20447;-23
2021/06/19 06:29:55;;;;;;;4.00;2.13;;;16.40;99.90;;;;;;5079363;28;20451;-23
2021/06/19 06:32:27;;;;;;;1.70;1.60;;;16.30;99.90;;;;;;5071989;28;20946;-22
2021/06/19 06:34:58;;;;;;;4.40;2.07;;;16.20;99.90;;;;;;5081540;28;20487;-24
2021/06/19 06:37:29;;;;;;;3.40;1.63;;;16.20;99.90;;;;;;5081234;28;20478;-25
2021/06/19 06:40:00;;;;;;;4.00;1.80;;;16.20;99.90;;;;;;5080776;28;20447;-23
2021/06/19 06:42:31;;;;;;;2.83;2.07;;;16.20;99.90;;;;;;5081642;28;20479;-22
2021/06/19 06:45:03;;;;;;;3.07;1.90;;;16.20;99.90;;;;;;5081767;28;20482;-22
2021/06/19 06:47:34;;;;;;;4.73;1.97;;;16.20;99.90;;;;;;5081689;28;20507;-22
2021/06/19 06:50:09;;;;;;;3.93;2.23;;;16.20;99.90;;;;;;5082727;28;20535;-22
2021/06/19 06:52:44;;;;;;;3.57;1.60;;;16.10;99.90;;;;;;5085709;28;20443;-24
2021/06/19 06:55:15;;;;;;;3.07;1.73;;;16.00;99.90;;;;;;5084148;28;21015;-24
2021/06/19 06:57:47;;;;;;;5.00;1.63;;;16.00;99.90;;;;;;5085791;28;20643;-24
2021/06/19 07:00:21;;;;;;;2.23;1.57;;;16.00;99.90;;;;;;5084656;28;20444;-23
2021/06/19 07:02:52;;;;;;;3.10;1.63;;;15.90;99.90;;;;;;5085703;28;20451;-23
2021/06/19 07:05:23;;;;;;;5.47;1.87;;;15.90;99.90;;;;;;5080771;28;20837;-21
2021/06/19 07:07:54;;;;;;;5.07;2.10;;;15.80;99.90;;;;;;5083321;28;20504;-21
2021/06/19 07:10:25;;;;;;;2.10;1.80;;;15.70;99.90;;;;;;5083793;28;20539;-22
2021/06/19 07:12:56;;;;;;;2.00;1.60;;;15.70;99.90;;;;;;5084636;28;20452;-22
2021/06/19 07:15:28;;;;;;;1.53;1.40;;;15.70;99.90;;;;;;5074183;28;20491;-24
2021/06/19 07:18:00;;;;;;;1.83;1.20;;;15.70;99.90;;;;;;5076909;28;20455;-23
2021/06/19 07:20:31;;;;;;;4.60;1.60;;;15.50;99.90;;;;;;5084012;28;20483;-24
2021/06/19 07:23:02;;;;;;;2.07;1.23;;;15.50;99.90;;;;;;5080525;28;20514;-21
2021/06/19 07:25:33;;;;;;;5.10;1.60;;;15.40;99.90;;;;;;5083481;28;20447;-21
2021/06/19 07:28:04;;;;;;;2.17;1.30;;;15.40;99.90;;;;;;5084417;28;20456;-21
2021/06/19 07:30:36;;;;;;;3.20;1.60;;;15.40;99.90;;;;;;5079863;28;20481;-22
2021/06/19 07:33:07;;;;;;;3.90;1.57;;;15.40;99.90;;;;;;5084279;28;20972;-23
2021/06/19 07:35:38;;;;;;;1.80;1.43;;;15.30;99.90;;;;;;5083989;28;20490;-24
2021/06/19 07:38:09;;;;;;;6.20;2.27;;;15.30;99.90;;;;;;5084514;28;20952;-23
2021/06/19 07:40:40;;;;;;;3.07;1.60;;;15.20;99.90;;;;;;5083078;28;20925;-22
2021/06/19 07:43:11;;;;;;;4.93;1.60;;;15.30;99.90;;;;;;5083755;28;20578;-22
2021/06/19 07:45:44;;;;;;;2.17;1.67;;;15.20;99.90;;;;;;5084090;28;20467;-23
2021/06/19 07:48:15;;;;;;;4.53;1.50;;;15.20;99.90;;;;;;5077937;28;20491;-22
2021/06/19 07:50:48;;;;;;;2.33;1.30;;;15.10;99.90;;;;;;5083480;28;20451;-22
2021/06/19 07:53:19;;;;;;;1.97;1.30;;;15.00;99.90;;;;;;5084598;28;20536;-24
2021/06/19 07:55:50;;;;;;;5.77;1.93;;;15.00;99.90;;;;;;5082711;28;20494;-22
2021/06/19 07:58:21;;;;;;;2.73;1.30;;;15.00;99.90;;;;;;5083423;28;20475;-21
2021/06/19 08:00:54;;;;;;;3.47;1.40;;;14.90;99.90;;;;;;5082529;28;20475;-24
2021/06/19 08:03:25;;;;;;;2.40;1.50;;;14.90;99.90;;;;;;5083329;28;20490;-24
2021/06/19 08:05:56;;;;;;;4.03;1.40;;;14.90;99.90;;;;;;5083158;28;20478;-21
2021/06/19 08:08:27;;;;;;;2.53;1.30;;;14.90;99.90;;;;;;5083564;28;20467;-24
2021/06/19 08:10:58;;;;;;;2.50;1.43;;;14.90;99.90;;;;;;5081861;28;20456;-22
2021/06/19 08:13:29;;;;;;;3.13;1.60;;;14.80;99.90;;;;;;5082023;28;20539;-24
2021/06/19 08:16:05;;;;;;;3.60;1.40;;;14.70;99.90;;;;;;5083105;28;20512;-22
2021/06/19 08:18:36;;;;;;;1.73;1.50;;;14.70;99.90;;;;;;5075603;28;20479;-22
2021/06/19 08:21:07;;;;;;;6.37;2.00;;;14.70;99.90;;;;;;5083186;28;20498;-22
2021/06/19 08:23:38;;;;;;;2.87;1.30;;;14.70;99.90;;;;;;5083614;28;20432;-22
2021/06/19 08:26:09;;;;;;;2.00;1.43;;;14.60;99.90;;;;;;5082101;28;20439;-22
2021/06/19 08:28:40;;;;;;;2.23;1.63;;;14.60;99.90;;;;;;5082915;28;20448;-28
2021/06/19 08:31:12;;;;;;;1.90;1.40;;;14.60;99.90;;;;;;5078109;28;20471;-22
2021/06/19 08:33:43;;;;;;;4.40;1.57;;;14.60;99.90;;;;;;5083106;28;20462;-20
2021/06/19 08:36:14;;;;;;;3.23;1.93;;;14.50;99.90;;;;;;5082815;28;20836;-26
2021/06/19 08:38:45;;;;;;;1.90;1.10;;;14.50;99.90;;;;;;5083071;28;20474;-22
2021/06/19 08:41:19;;;;;;;3.07;1.33;;;14.40;99.90;;;;;;5081875;28;20520;-21
2021/06/19 08:43:50;;;;;;;1.57;1.37;;;14.40;99.90;;;;;;5080306;28;20475;-22
2021/06/19 08:46:24;;;;;;;2.30;1.30;;;14.40;99.90;;;;;;5081862;28;20490;-21
2021/06/19 08:48:56;;;;;;;2.97;1.70;;;14.40;99.90;;;;;;5075864;28;20490;-22
2021/06/19 08:51:28;;;;;;;3.53;1.00;;;14.30;99.90;;;;;;5082951;28;20925;-22
2021/06/19 08:53:59;;;;;;;2.60;1.53;;;14.30;99.90;;;;;;5082836;28;20444;-21
2021/06/19 08:56:29;;;;;;;3.37;2.07;;;14.30;99.90;;;;;;5081758;28;20515;-21
2021/06/19 08:59:03;;;;;;;2.43;1.50;;;14.20;99.90;;;;;;5082778;28;20448;-25
2021/06/19 09:01:36;;;;;;;1.87;1.30;;;14.20;99.90;;;;;;5082461;28;20466;-23
2021/06/19 09:04:07;;;;;;;2.90;1.50;;;14.20;99.90;;;;;;5080939;28;20495;-22
2021/06/19 09:06:40;;;;;;;2.50;1.60;;;14.20;99.90;;;;;;5079652;28;20600;-21
2021/06/19 09:09:13;;;;;;;3.77;1.70;;;14.10;99.90;;;;;;5076235;28;20435;-23
2021/06/19 09:11:46;;;;;;;3.13;1.97;;;14.10;99.90;;;;;;5082861;28;20511;-21
2021/06/19 09:14:21;;;;;;;2.47;1.20;;;14.10;99.90;;;;;;5076784;28;20451;-21
2021/06/19 09:17:01;;;;;;;2.50;1.77;;;14.10;99.90;;;;;;5081260;28;20507;-24
2021/06/19 09:19:33;;;;;;;1.60;1.43;;;14.10;99.90;;;;;;5081120;28;20463;-22
2021/06/19 09:22:15;;;;;;;2.00;1.30;;;14.10;99.90;;;;;;5082452;28;20451;-22
2021/06/19 09:24:48;;;;;;;2.00;1.33;;;14.10;99.90;;;;;;5081858;28;20470;-21
2021/06/19 09:27:36;;;;;;;2.60;1.37;;;14.00;99.90;;;;;;5082321;28;20470;-23
2021/06/19 09:30:09;;;;;;;3.00;1.40;;;14.00;99.90;;;;;;5081814;28;20451;-22
2021/06/19 09:32:49;;;;;;;3.90;1.40;;;14.00;99.90;;;;;;5079574;28;20547;-22
2021/06/19 09:35:24;;;;;;;7.50;1.63;;;14.00;99.90;;;;;;5082292;28;20471;-22
2021/06/19 09:37:57;;;;;;;2.87;1.67;;;14.00;99.90;;;;;;5081613;28;20562;-24
2021/06/19 09:40:31;;;;;;;3.63;1.50;;;13.90;99.90;;;;;;5080927;28;20494;-22
2021/06/19 09:43:13;;;;;;;1.30;1.20;;;13.90;99.90;;;;;;5081834;28;20500;-22
2021/06/19 09:45:59;;;;;;;3.60;1.60;;;13.90;99.90;;;;;;5081095;28;20479;-22
2021/06/19 09:48:34;;;;;;;3.07;1.40;;;13.80;99.90;;;;;;5076705;28;20479;-22
2021/06/19 09:51:16;;;;;;;2.97;1.63;;;13.80;99.90;;;;;;5071286;28;20453;-23
2021/06/19 09:53:50;;;;;;;6.03;1.57;;;13.70;99.90;;;;;;5082361;28;21018;-20
2021/06/19 09:56:22;;;;;;;3.13;1.90;;;13.80;99.90;;;;;;5081071;28;20487;-21
2021/06/19 09:58:56;;;;;;;1.93;1.37;;;13.80;99.90;;;;;;5065544;28;20456;-21
2021/06/19 10:01:43;;;;;;;3.20;1.50;;;13.80;99.90;;;;;;5079244;28;20975;-22
2021/06/19 10:04:17;;;;;;;1.93;1.47;;;13.70;99.90;;;;;;5079869;28;20440;-22
2021/06/19 10:06:48;;;;;;;2.27;1.47;;;13.60;99.90;;;;;;5081224;28;20462;-22
2021/06/19 10:09:19;;;;;;;2.30;1.87;;;13.50;99.90;;;;;;5080964;28;20447;-22
2021/06/19 10:11:52;;;;;;;3.03;1.27;;;13.50;99.90;;;;;;5081295;28;20455;-21
2021/06/19 10:14:25;;;;;;;3.40;1.60;;;13.40;99.90;;;;;;5081452;28;20806;-25
2021/06/19 10:16:59;;;;;;;4.40;1.77;;;13.40;99.90;;;;;;5080718;28;20569;-22
2021/06/19 10:19:31;;;;;;;2.60;1.50;;;13.30;99.90;;;;;;5081798;28;20828;-21
2021/06/19 10:22:02;;;;;;;2.93;1.43;;;13.40;99.90;;;;;;5085319;28;20523;-22
2021/06/19 10:24:33;;;;;;;2.63;1.70;;;13.40;99.90;;;;;;5084492;28;20479;-23
2021/06/19 10:27:06;;;;;;;1.80;1.30;;;13.30;99.90;;;;;;5084687;28;20451;-23
2021/06/19 10:29:37;;;;;;;4.40;1.40;;;13.30;99.90;;;;;;5085473;28;20452;-21
2021/06/19 10:32:09;;;;;;;3.97;1.70;;;13.20;99.90;;;;;;5085169;28;20561;-22
2021/06/19 10:34:53;;;;;;;3.93;2.00;;;13.30;99.90;;;;;;5084402;28;20451;-21
2021/06/19 10:37:31;;;;;;;4.57;1.30;;;13.30;99.90;;;;;;5085593;28;20525;-22
2021/06/19 10:40:18;;;;;;;2.93;1.97;;;13.30;99.90;;;;;;5084531;28;20454;-23
2021/06/19 10:42:51;;;;;;;2.80;1.73;;;13.20;99.90;;;;;;5084486;28;20455;-22
2021/06/19 10:45:24;;;;;;;4.50;1.77;;;13.10;99.90;;;;;;5084409;28;20451;-24
2021/06/19 10:48:04;;;;;;;7.27;2.23;;;13.20;99.90;;;;;;5083384;28;20503;-23
2021/06/19 10:50:44;;;;;;;3.70;1.40;;;13.10;99.90;;;;;;5080542;28;20481;-22
2021/06/19 10:53:17;;;;;;;7.23;1.87;;;13.10;99.90;;;;;;5085618;28;20450;-22
2021/06/19 10:55:57;;;;;;;2.10;1.63;;;13.10;99.90;;;;;;5073208;28;20578;-22
2021/06/19 10:58:29;;;;;;;5.40;2.40;;;13.10;99.90;;;;;;5069039;28;20483;-22
2021/06/19 11:01:01;;;;;;;4.00;1.97;;;12.90;99.90;;;;;;5073211;28;20444;-22
2021/06/19 11:03:44;;;;;;;2.47;1.70;;;12.90;99.90;;;;;;5079650;28;22314;-23
2021/06/19 11:06:27;;;;;;;3.23;1.50;;;13.00;99.90;;;;;;5084781;28;20447;-21
2021/06/19 11:09:06;;;;;;;3.50;1.47;;;13.00;99.90;;;;;;5084129;28;20447;-23
2021/06/19 11:11:54;;;;;;;3.63;1.80;;;12.90;99.90;;;;;;5084864;28;20500;-25
2021/06/19 11:14:53;;;;;;;1.70;1.43;;;13.00;99.90;;;;;;5079355;28;20483;-22
2021/06/19 11:17:46;;;;;;;4.17;1.67;;;12.90;99.90;;;;;;5085202;28;20515;-21
2021/06/19 11:20:30;;;;;;;2.60;1.60;;;12.80;99.90;;;;;;5077603;28;20444;-21
2021/06/19 11:23:06;;;;;;;4.20;1.30;;;12.80;99.90;;;;;;5084112;28;20459;-23
2021/06/19 11:25:51;;;;;;;1.77;1.50;;;12.80;99.90;;;;;;5083669;28;20458;-22
2021/06/19 11:28:33;;;;;;;5.60;1.70;;;12.80;99.90;;;;;;5084315;28;20992;-25
2021/06/19 11:31:06;;;;;;;4.00;1.90;;;12.70;99.90;;;;;;5083247;28;20451;-22
2021/06/19 11:33:58;;;;;;;2.87;1.70;;;12.70;99.90;;;;;;5083618;28;20457;-24
2021/06/19 11:36:32;;;;;;;7.70;2.00;;;12.70;99.90;;;;;;5084018;28;20502;-23
2021/06/19 11:39:16;;;;;;;6.03;1.67;;;12.50;99.90;;;;;;5083654;28;20871;-22
2021/06/19 11:41:51;;;;;;;2.13;1.70;;;12.50;99.90;;;;;;5083004;28;20447;-22
2021/06/19 11:44:33;;;;;;;3.27;1.50;;;12.40;99.90;;;;;;5083407;28;20509;-24
2021/06/19 11:47:09;;;;;;;3.70;1.97;;;12.40;99.90;;;;;;5076939;28;20525;-22
2021/06/19 11:49:43;;;;;;;4.40;2.00;;;12.50;99.90;;;;;;5079552;28;20448;-22
2021/06/19 11:52:19;;;;;;;2.10;1.47;;;12.40;99.90;;;;;;5083735;28;20762;-23
2021/06/19 11:54:56;;;;;;;1.90;1.33;;;12.40;99.90;;;;;;5079822;28;20602;-23
2021/06/19 11:57:29;;;;;;;3.67;1.53;;;12.50;99.90;;;;;;5083472;28;20467;-27
2021/06/19 12:00:08;;;;;;;4.13;1.80;;;12.60;99.90;;;;;;5084082;28;20569;-23
2021/06/19 12:02:40;;;;;;;3.50;2.07;;;12.50;99.90;;;;;;5078708;28;20443;-22
2021/06/19 12:05:19;;;;;;;2.63;1.40;;;12.50;99.90;;;;;;5082810;28;20525;-21
2021/06/19 12:07:54;;;;;;;2.90;2.00;;;12.50;99.90;;;;;;5084046;28;20455;-23
2021/06/19 12:10:31;;;;;;;3.80;2.13;;;12.50;99.90;;;;;;5082091;28;20466;-23
2021/06/19 12:13:05;;;;;;;4.87;1.97;;;12.50;99.90;;;;;;5082511;28;20475;-21
2021/06/19 12:15:36;;;;;;;6.60;2.07;;;12.40;99.90;;;;;;5082652;28;20786;-28
2021/06/19 12:18:19;;;;;;;3.17;1.97;;;12.40;99.90;;;;;;5084052;28;20609;-22
2021/06/19 12:21:02;;;;;;;2.70;1.40;;;12.40;99.90;;;;;;5082242;28;20447;-22
2021/06/19 12:23:38;;;;;;;2.25;1.40;;;12.30;99.90;;;;;;5067502;28;20452;-22
2021/06/19 12:26:13;;;;;;;2.10;1.87;;;12.30;99.90;;;;;;5082389;28;20201;-22
2021/06/19 12:28:46;;;;;;;2.53;1.97;;;12.30;99.90;;;;;;5081830;28;20451;-22
2021/06/19 12:31:18;;;;;;;2.83;1.90;;;12.20;99.90;;;;;;5082971;28;20475;-24
2021/06/19 12:33:57;;;;;;;4.00;2.30;;;12.20;99.90;;;;;;5067101;28;20448;-22
2021/06/19 12:36:29;;;;;;;3.23;2.10;;;12.20;99.90;;;;;;5082615;28;20498;-24
2021/06/19 12:39:00;;;;;;;2.03;1.63;;;12.20;99.90;;;;;;5076987;28;20483;-22
2021/06/19 12:41:32;;;;;;;3.15;1.27;;;12.20;99.90;;;;;;5081913;28;20461;-21
2021/06/19 12:44:11;;;;;;;2.33;2.13;;;12.20;99.90;;;;;;5081947;28;20209;-22
2021/06/19 12:47:20;;;;;;;2.60;1.53;;;12.30;99.90;;;;;;5081122;28;20476;-21
2021/06/19 12:49:56;;;;;;;4.37;2.23;;;12.30;99.90;;;;;;5079852;28;20448;-24
2021/06/19 12:52:27;;;;;;;2.23;2.03;;;12.30;99.90;;;;;;5082706;28;20475;-22
2021/06/19 12:55:13;;;;;;;5.23;2.10;;;12.20;99.90;;;;;;5082339;28;21107;-21
2021/06/19 12:57:46;;;;;;;3.73;1.70;;;12.30;99.90;;;;;;5082292;28;20450;-23
2021/06/19 13:00:18;;;;;;;2.53;1.50;;;12.30;99.90;;;;;;5082686;28;20526;-22
2021/06/19 13:02:56;;;;;;;2.60;1.77;;;12.30;99.90;;;;;;5070825;28;20451;-21
2021/06/19 13:05:27;;;;;;;2.77;2.27;;;12.40;99.90;;;;;;5075907;28;20514;-21
2021/06/19 13:08:11;;;;;;;3.20;2.00;;;12.40;99.90;;;;;;5083110;28;20506;-23
2021/06/19 13:10:43;;;;;;;2.70;1.73;;;12.40;99.90;;;;;;5081364;28;20475;-25
2021/06/19 13:13:19;;;;;;;1.83;1.53;;;12.50;99.90;;;;;;5082153;28;20538;-24
2021/06/19 13:16:00;;;;;;;2.43;1.90;;;12.60;99.90;;;;;;5080193;28;20447;-21
2021/06/19 13:18:31;;;;;;;4.23;2.33;;;12.50;99.90;;;;;;5082103;28;20621;-22
2021/06/19 13:21:08;;;;;;;4.03;2.00;;;12.50;99.90;;;;;;5077207;28;20443;-21